Time;durP1;ratioP1;P1;durP2;ratioP2;P2;SDS_P1;SDS_P2;PMS_P1;PMS_P2;Temp;Humidity;BMP_temperature;BMP_pressure;BME280_temperature;BME280_humidity;BME280_pressure;Samples;Min_cycle;Max_cycle;Signal;HPM_P1;HPM_P2
2021/03/16 17:14:41;;;;;;;7.60;4.82;;;6.30;99.90;;;;;;5076281;27;20420;-60
2021/03/16 17:17:06;;;;;;;5.93;4.82;;;6.20;99.90;;;;;;5071953;28;20041;-60
2021/03/16 17:19:32;;;;;;;12.27;5.55;;;6.10;99.90;;;;;;5067153;28;20021;-62
2021/03/16 17:21:58;;;;;;;8.90;5.63;;;6.10;99.90;;;;;;5077143;28;20020;-60
2021/03/16 17:24:24;;;;;;;6.97;5.03;;;6.20;99.90;;;;;;5077956;28;20047;-62
2021/03/16 17:26:51;;;;;;;8.38;5.05;;;6.20;99.90;;;;;;5074903;28;20060;-61
2021/03/16 17:29:17;;;;;;;5.85;4.40;;;6.10;99.90;;;;;;5078306;28;20020;-63
2021/03/16 17:31:42;;;;;;;4.82;4.30;;;6.00;99.90;;;;;;5083064;28;20032;-63
2021/03/16 17:34:08;;;;;;;5.50;4.60;;;6.00;99.90;;;;;;5075617;28;20036;-61
2021/03/16 17:36:34;;;;;;;5.40;4.90;;;6.00;99.90;;;;;;5080161;28;20508;-60
2021/03/16 17:39:02;;;;;;;6.45;5.50;;;6.00;99.90;;;;;;5076087;28;20051;-60
2021/03/16 17:41:32;;;;;;;7.85;6.10;;;6.00;99.90;;;;;;5078198;28;20055;-61
2021/03/16 17:43:58;;;;;;;7.57;5.97;;;6.00;99.90;;;;;;5070581;28;20028;-60
2021/03/16 17:46:25;;;;;;;9.23;7.40;;;5.90;99.90;;;;;;5077737;28;20485;-61
2021/03/16 17:48:50;;;;;;;10.52;6.97;;;5.90;99.90;;;;;;5077018;28;20489;-61
2021/03/16 17:51:17;;;;;;;9.30;6.90;;;6.00;99.90;;;;;;5075038;28;20321;-61
2021/03/16 17:53:43;;;;;;;11.18;7.55;;;6.00;99.90;;;;;;5080091;28;20020;-60
2021/03/16 17:56:08;;;;;;;10.10;7.45;;;6.00;99.90;;;;;;5068225;28;20445;-64
2021/03/16 17:58:34;;;;;;;12.23;8.40;;;6.00;99.90;;;;;;5075548;28;20383;-61
2021/03/16 18:00:59;;;;;;;12.38;7.75;;;6.00;99.90;;;;;;5080987;28;20028;-60
2021/03/16 18:03:25;;;;;;;13.38;9.77;;;6.00;99.90;;;;;;5070230;28;20035;-61
2021/03/16 18:05:52;;;;;;;16.88;10.27;;;5.90;99.90;;;;;;5070489;28;20032;-61
2021/03/16 18:08:18;;;;;;;11.93;8.48;;;5.90;99.90;;;;;;5065648;28;20055;-60
2021/03/16 18:10:44;;;;;;;13.07;9.02;;;6.00;99.90;;;;;;5065511;28;20151;-61
2021/03/16 18:13:10;;;;;;;15.98;11.43;;;5.90;99.90;;;;;;5073029;28;20050;-61
2021/03/16 18:15:35;;;;;;;13.50;10.02;;;5.90;99.90;;;;;;5069615;28;20363;-60
2021/03/16 18:18:01;;;;;;;17.40;11.10;;;5.90;99.90;;;;;;5072322;28;20458;-61
2021/03/16 18:20:27;;;;;;;19.27;10.52;;;5.90;99.90;;;;;;5079321;28;20513;-60
2021/03/16 18:22:52;;;;;;;17.45;11.18;;;5.90;99.90;;;;;;5073260;28;20429;-62
2021/03/16 18:25:18;;;;;;;16.77;10.98;;;5.90;99.90;;;;;;5061730;28;20025;-61
2021/03/16 18:27:43;;;;;;;17.15;10.73;;;6.00;99.90;;;;;;5067945;28;20521;-62
2021/03/16 18:30:09;;;;;;;16.58;11.30;;;6.10;99.90;;;;;;5064278;28;20017;-60
2021/03/16 18:32:35;;;;;;;21.08;12.45;;;6.10;99.90;;;;;;5068842;28;20059;-63
2021/03/16 18:35:02;;;;;;;18.00;12.23;;;6.20;99.90;;;;;;5055069;28;20543;-61
2021/03/16 18:37:28;;;;;;;18.80;12.52;;;6.20;99.90;;;;;;5048728;28;20006;-60
2021/03/16 18:39:55;;;;;;;21.60;12.50;;;6.10;99.90;;;;;;5049081;28;20025;-61
2021/03/16 18:42:21;;;;;;;20.35;12.93;;;6.00;99.90;;;;;;5056547;28;20091;-60
2021/03/16 18:44:46;;;;;;;29.38;12.75;;;6.00;99.90;;;;;;5051260;28;20417;-61
2021/03/16 18:47:12;;;;;;;22.42;13.85;;;6.00;99.90;;;;;;5056016;28;20090;-60
2021/03/16 18:49:38;;;;;;;24.50;14.02;;;6.00;99.90;;;;;;5067124;28;20374;-61
2021/03/16 18:52:04;;;;;;;21.38;14.32;;;6.00;99.90;;;;;;5062957;28;20043;-60
2021/03/16 18:54:31;;;;;;;20.58;13.85;;;6.00;99.90;;;;;;5059884;28;20021;-62
2021/03/16 18:56:56;;;;;;;22.58;14.45;;;6.10;99.90;;;;;;5065856;28;20350;-61
2021/03/16 18:59:22;;;;;;;30.00;16.77;;;6.10;99.90;;;;;;5069083;28;20021;-61
2021/03/16 19:01:47;;;;;;;27.48;15.80;;;6.10;99.90;;;;;;5060825;28;20128;-61
2021/03/16 19:04:13;;;;;;;25.83;16.30;;;6.00;99.90;;;;;;5051944;28;20050;-60
2021/03/16 19:06:38;;;;;;;27.75;16.73;;;5.80;99.90;;;;;;5057130;28;20040;-60
2021/03/16 19:09:05;;;;;;;30.65;17.05;;;5.80;99.90;;;;;;5054930;28;20032;-61
2021/03/16 19:11:30;;;;;;;27.70;16.88;;;5.80;99.90;;;;;;5051373;28;20124;-63
2021/03/16 19:13:56;;;;;;;29.77;17.10;;;5.70;99.90;;;;;;5053120;28;20114;-62
2021/03/16 19:16:22;;;;;;;30.95;17.13;;;5.60;99.90;;;;;;5054462;28;20025;-61
2021/03/16 19:18:48;;;;;;;30.08;17.75;;;5.60;99.90;;;;;;5048211;28;20063;-62
2021/03/16 19:21:13;;;;;;;28.45;17.20;;;5.70;99.90;;;;;;5062182;28;20021;-60
2021/03/16 19:23:39;;;;;;;31.48;19.33;;;5.70;99.90;;;;;;5055520;28;20100;-63
2021/03/16 19:26:05;;;;;;;29.13;17.17;;;5.60;99.90;;;;;;5059115;28;20024;-62
2021/03/16 19:28:31;;;;;;;26.70;15.63;;;5.60;99.90;;;;;;5059562;28;20060;-62
2021/03/16 19:30:58;;;;;;;24.08;14.00;;;5.60;99.90;;;;;;5062962;28;20035;-62
2021/03/16 19:33:26;;;;;;;26.35;15.88;;;5.60;99.90;;;;;;5055190;28;20029;-62
2021/03/16 19:35:51;;;;;;;26.83;15.40;;;5.60;99.90;;;;;;5059938;28;20486;-61
2021/03/16 19:38:17;;;;;;;35.60;19.00;;;5.60;99.90;;;;;;5060155;28;20021;-61
2021/03/16 19:40:43;;;;;;;30.95;18.08;;;5.50;99.90;;;;;;5057168;28;20075;-61
2021/03/16 19:43:09;;;;;;;31.35;19.42;;;5.50;99.90;;;;;;5064591;28;20043;-61
2021/03/16 19:45:35;;;;;;;33.15;18.90;;;5.50;99.90;;;;;;5050877;28;20040;-62
2021/03/16 19:48:00;;;;;;;35.47;19.40;;;5.50;99.90;;;;;;5066689;28;20028;-61
2021/03/16 19:50:26;;;;;;;33.92;19.85;;;5.70;99.90;;;;;;5063054;28;20052;-62
2021/03/16 19:52:52;;;;;;;39.30;21.92;;;5.70;99.90;;;;;;5057059;28;20021;-63
2021/03/16 19:55:18;;;;;;;42.53;23.65;;;5.70;99.90;;;;;;5064750;28;20080;-62
2021/03/16 19:57:44;;;;;;;40.63;22.60;;;5.60;99.90;;;;;;5064943;28;20020;-61
2021/03/16 20:00:10;;;;;;;29.42;18.10;;;5.70;99.90;;;;;;5062834;28;20394;-62
2021/03/16 20:02:35;;;;;;;34.55;19.08;;;5.80;99.90;;;;;;5063803;28;20032;-61
2021/03/16 20:05:02;;;;;;;30.48;18.75;;;6.00;99.90;;;;;;5066447;28;20040;-62
2021/03/16 20:07:27;;;;;;;34.28;20.25;;;6.10;99.90;;;;;;5057107;28;20522;-62
2021/03/16 20:09:53;;;;;;;34.53;19.60;;;6.10;99.90;;;;;;5067403;28;20093;-61
2021/03/16 20:12:18;;;;;;;37.70;22.13;;;6.00;99.90;;;;;;5063899;28;20067;-62
2021/03/16 20:14:44;;;;;;;39.45;21.10;;;5.80;99.90;;;;;;5063375;28;20039;-61
2021/03/16 20:17:10;;;;;;;38.75;21.30;;;5.80;99.90;;;;;;5066973;28;20662;-61
2021/03/16 20:19:35;;;;;;;44.80;24.08;;;5.70;99.90;;;;;;5064823;28;20047;-60
2021/03/16 20:22:01;;;;;;;39.70;22.35;;;5.70;99.90;;;;;;5061590;28;20031;-60
2021/03/16 20:24:27;;;;;;;39.90;21.92;;;5.80;99.90;;;;;;5063249;28;20112;-61
2021/03/16 20:26:53;;;;;;;35.15;19.90;;;5.70;99.90;;;;;;5063418;28;20032;-60
2021/03/16 20:29:18;;;;;;;33.33;17.92;;;5.70;99.90;;;;;;5060942;28;20466;-62
2021/03/16 20:31:44;;;;;;;31.70;18.25;;;5.70;99.90;;;;;;5058854;28;20036;-61
2021/03/16 20:34:10;;;;;;;27.27;17.15;;;5.70;99.90;;;;;;5053989;28;20081;-61
2021/03/16 20:36:37;;;;;;;29.35;17.95;;;5.70;99.90;;;;;;5056259;28;20093;-60
2021/03/16 20:39:04;;;;;;;30.73;18.10;;;5.50;99.90;;;;;;5052874;28;20031;-61
2021/03/16 20:41:30;;;;;;;39.33;20.05;;;5.50;99.90;;;;;;5063920;28;20043;-61
2021/03/16 20:43:56;;;;;;;37.45;20.38;;;5.50;99.90;;;;;;5049742;28;20061;-61
2021/03/16 20:46:21;;;;;;;33.90;20.15;;;5.50;99.90;;;;;;5061836;28;20474;-61
2021/03/16 20:48:47;;;;;;;34.85;19.48;;;5.50;99.90;;;;;;5054155;28;20109;-61
2021/03/16 20:51:13;;;;;;;33.33;19.27;;;5.50;99.90;;;;;;5066029;28;20039;-61
2021/03/16 20:53:38;;;;;;;35.00;19.67;;;5.40;99.90;;;;;;5052027;28;20103;-61
2021/03/16 20:56:06;;;;;;;32.28;19.42;;;5.40;99.90;;;;;;5045724;28;20116;-61
2021/03/16 20:58:32;;;;;;;27.48;17.05;;;5.40;99.90;;;;;;5058686;28;20474;-61
2021/03/16 21:00:58;;;;;;;24.35;14.43;;;5.40;99.90;;;;;;5053512;28;20533;-60
2021/03/16 21:03:24;;;;;;;19.20;12.30;;;5.40;99.90;;;;;;5063812;28;20668;-60
2021/03/16 21:05:49;;;;;;;22.45;14.40;;;5.30;99.90;;;;;;5062727;28;20024;-60
2021/03/16 21:08:15;;;;;;;25.10;15.10;;;5.40;99.90;;;;;;5048641;28;20159;-61
2021/03/16 21:10:41;;;;;;;31.38;18.08;;;5.40;99.90;;;;;;5046708;28;20205;-60
2021/03/16 21:13:07;;;;;;;31.70;19.75;;;5.50;99.90;;;;;;5062500;28;20055;-60
2021/03/16 21:15:33;;;;;;;37.78;21.73;;;5.50;99.90;;;;;;5062278;28;20020;-60
2021/03/16 21:17:59;;;;;;;33.15;20.13;;;5.50;99.90;;;;;;5050767;28;20375;-62
2021/03/16 21:20:27;;;;;;;29.75;18.35;;;5.40;99.90;;;;;;5064833;28;20020;-60
2021/03/16 21:22:54;;;;;;;29.58;18.40;;;5.40;99.90;;;;;;5061470;28;20028;-61
2021/03/16 21:25:19;;;;;;;23.17;15.25;;;5.20;99.90;;;;;;5055468;28;20122;-61
2021/03/16 21:27:45;;;;;;;19.48;13.35;;;5.20;99.90;;;;;;5063783;28;20056;-61
2021/03/16 21:30:16;;;;;;;23.48;14.20;;;5.30;99.90;;;;;;5064333;28;20575;-61
2021/03/16 21:32:47;;;;;;;17.17;11.57;;;5.30;99.90;;;;;;5066003;28;20120;-61
2021/03/16 21:35:14;;;;;;;12.60;9.03;;;5.30;99.90;;;;;;5051299;28;20108;-60
2021/03/16 21:37:40;;;;;;;12.18;8.88;;;5.30;99.90;;;;;;5066242;28;20020;-60
2021/03/16 21:40:08;;;;;;;12.40;9.05;;;5.20;99.90;;;;;;5066042;28;20032;-60
2021/03/16 21:42:34;;;;;;;13.40;8.52;;;5.10;99.90;;;;;;5064865;28;20039;-61
2021/03/16 21:45:00;;;;;;;11.55;8.52;;;5.10;99.90;;;;;;5053697;28;20035;-60
2021/03/16 21:47:26;;;;;;;11.48;8.13;;;5.00;99.90;;;;;;5050935;28;20100;-61
2021/03/16 21:49:52;;;;;;;11.15;8.23;;;5.00;99.90;;;;;;5059096;28;20107;-60
2021/03/16 21:52:17;;;;;;;8.27;6.45;;;5.20;99.90;;;;;;5065141;28;20019;-61
2021/03/16 21:54:43;;;;;;;5.60;4.43;;;5.10;99.90;;;;;;5065084;28;20032;-61
2021/03/16 21:57:09;;;;;;;5.32;4.38;;;5.00;99.90;;;;;;5049599;28;20021;-61
2021/03/16 21:59:34;;;;;;;5.90;4.85;;;4.80;99.90;;;;;;5055321;28;20056;-60
2021/03/16 22:02:00;;;;;;;6.00;4.93;;;4.80;99.90;;;;;;5058556;28;20104;-60
2021/03/16 22:04:26;;;;;;;6.40;5.10;;;4.80;99.90;;;;;;5056812;28;20035;-59
2021/03/16 22:06:51;;;;;;;8.55;6.97;;;4.80;99.90;;;;;;5065948;28;20406;-60
2021/03/16 22:09:17;;;;;;;9.65;7.20;;;4.90;99.90;;;;;;5057911;28;20078;-60
2021/03/16 22:11:43;;;;;;;13.55;8.13;;;4.80;99.90;;;;;;5064819;28;20026;-60
2021/03/16 22:14:08;;;;;;;13.70;9.85;;;4.90;99.90;;;;;;5060532;28;20098;-59
2021/03/16 22:16:34;;;;;;;12.18;8.85;;;4.80;99.90;;;;;;5063581;28;20025;-60
2021/03/16 22:18:59;;;;;;;15.60;11.27;;;4.90;99.90;;;;;;5063087;28;20016;-59
2021/03/16 22:21:25;;;;;;;18.75;12.98;;;4.90;99.90;;;;;;5065806;28;20457;-59
2021/03/16 22:23:51;;;;;;;20.25;14.60;;;4.90;99.90;;;;;;5068614;28;20067;-59
2021/03/16 22:26:17;;;;;;;22.52;15.38;;;4.90;99.90;;;;;;5062857;28;20040;-60
2021/03/16 22:28:42;;;;;;;21.75;13.73;;;4.90;99.90;;;;;;5054201;28;20029;-59
2021/03/16 22:31:08;;;;;;;22.45;15.18;;;4.90;99.90;;;;;;5057643;28;20025;-59
2021/03/16 22:33:33;;;;;;;26.80;16.35;;;4.90;99.90;;;;;;5068316;28;20523;-59
2021/03/16 22:35:59;;;;;;;27.05;17.58;;;5.00;99.90;;;;;;5065333;28;20032;-58
2021/03/16 22:38:25;;;;;;;26.98;17.30;;;5.00;99.90;;;;;;5061124;28;20024;-58
2021/03/16 22:40:53;;;;;;;23.60;16.15;;;5.00;99.90;;;;;;5061998;28;20028;-59
2021/03/16 22:43:18;;;;;;;27.88;19.10;;;5.00;99.90;;;;;;5060976;28;20074;-60
2021/03/16 22:45:44;;;;;;;30.30;21.08;;;4.90;99.90;;;;;;5053144;28;20033;-59
2021/03/16 22:48:10;;;;;;;34.65;22.17;;;4.90;99.90;;;;;;5074666;22;20083;-71
2021/03/16 22:50:35;;;;;;;31.40;20.77;;;5.00;99.90;;;;;;5056322;28;20025;-72
2021/03/16 22:53:01;;;;;;;35.63;21.75;;;5.00;99.90;;;;;;5055055;28;20045;-72
2021/03/16 22:55:27;;;;;;;36.75;20.85;;;4.90;99.90;;;;;;5065359;28;20035;-71
2021/03/16 22:57:52;;;;;;;34.65;20.90;;;4.90;99.90;;;;;;5064943;28;20117;-72
2021/03/16 23:00:26;;;;;;;38.17;19.95;;;4.90;99.90;;;;;;5061403;28;20078;-69
2021/03/16 23:02:52;;;;;;;34.72;19.38;;;4.90;99.90;;;;;;5065779;28;20632;-70
2021/03/16 23:05:18;;;;;;;38.63;20.70;;;4.80;99.90;;;;;;5058033;28;20024;-71
2021/03/16 23:07:43;;;;;;;34.45;20.23;;;4.80;99.90;;;;;;5064500;28;20032;-71
2021/03/16 23:10:12;;;;;;;43.90;21.52;;;4.80;99.90;;;;;;5068610;28;20028;-71
2021/03/16 23:12:38;;;;;;;31.08;19.30;;;4.70;99.90;;;;;;5066968;28;20040;-73
2021/03/16 23:15:15;;;;;;;36.38;20.00;;;4.70;99.90;;;;;;5065783;28;20017;-71
2021/03/16 23:17:41;;;;;;;34.80;21.13;;;4.70;99.90;;;;;;5065207;28;20021;-71
2021/03/16 23:20:20;;;;;;;42.08;22.67;;;4.70;99.90;;;;;;5066024;28;20032;-70
2021/03/16 23:22:46;;;;;;;41.20;21.23;;;4.70;99.90;;;;;;5065897;28;20052;-70
2021/03/16 23:25:16;;;;;;;40.80;23.17;;;4.70;99.90;;;;;;5066668;28;20051;-70
2021/03/16 23:27:42;;;;;;;36.90;22.73;;;4.70;99.90;;;;;;5064706;28;20021;-70
2021/03/16 23:30:10;;;;;;;42.47;24.40;;;4.70;99.90;;;;;;5066967;28;20430;-70
2021/03/16 23:32:36;;;;;;;49.05;25.55;;;4.70;99.90;;;;;;5067823;28;20693;-70
2021/03/16 23:35:10;;;;;;;48.30;26.48;;;4.70;99.90;;;;;;5067095;28;20028;-69
2021/03/16 23:37:36;;;;;;;47.33;25.40;;;4.70;99.90;;;;;;5059289;28;20027;-71
2021/03/16 23:40:04;;;;;;;50.05;26.50;;;4.80;99.90;;;;;;5065420;28;20108;-70
2021/03/16 23:42:30;;;;;;;54.60;28.20;;;4.70;99.90;;;;;;5066311;28;20012;-67
2021/03/16 23:44:56;;;;;;;44.80;25.50;;;4.70;99.90;;;;;;5051077;28;20637;-73
2021/03/16 23:47:22;;;;;;;51.45;27.02;;;4.80;99.90;;;;;;5065240;28;20032;-71
2021/03/16 23:49:47;;;;;;;55.30;29.05;;;4.80;99.90;;;;;;5047909;28;20096;-70
2021/03/16 23:52:13;;;;;;;49.33;27.58;;;4.80;99.90;;;;;;5065098;28;20032;-71
2021/03/16 23:54:38;;;;;;;50.35;29.05;;;4.80;99.90;;;;;;5062875;28;20083;-72
2021/03/16 23:57:04;;;;;;;46.78;27.80;;;4.80;99.90;;;;;;5052808;28;20021;-70
2021/03/16 23:59:30;;;;;;;45.25;26.65;;;4.80;99.90;;;;;;5049556;28;20035;-72
